Time;durP1;ratioP1;P1;durP2;ratioP2;P2;SDS_P1;SDS_P2;PMS_P1;PMS_P2;Temp;Humidity;BMP_temperature;BMP_pressure;BME280_temperature;BME280_humidity;BME280_pressure;Samples;Min_cycle;Max_cycle;Signal;HPM_P1;HPM_P2
2024/04/18 00:01:55;;;;;;;;;;;;;;;;;;5477793;26;19935;-66
2024/04/18 00:04:20;;;;;;;;;;;;;;;;;;5476243;25;19977;-65
2024/04/18 00:06:45;;;;;;;;;;;;;;;;;;5478111;25;19938;-66
2024/04/18 00:09:10;;;;;;;;;;;;;;;;;;5460245;25;20615;-65
2024/04/18 00:11:35;;;;;;;;;;;;;;;;;;5441827;26;19944;-66
2024/04/18 00:14:01;;;;;;;;;;;;;;;;;;5472000;26;20011;-66
2024/04/18 00:16:26;;;;;;;;;;;;;;;;;;5476793;25;19987;-66
2024/04/18 00:18:51;;;;;;;;;;;;;;;;;;5481043;25;19939;-66
2024/04/18 00:21:16;;;;;;;;;;;;;;;;;;5484951;25;19928;-65
2024/04/18 00:23:41;;;;;;;;;;;;;;;;;;5480775;25;19928;-66
2024/04/18 00:26:06;;;;;;;;;;;;;;;;;;5480852;25;19963;-65
2024/04/18 00:28:31;;;;;;;;;;;;;;;;;;5481588;26;20591;-65
2024/04/18 00:30:56;;;;;;;;;;;;;;;;;;5480613;25;20318;-65
2024/04/18 00:33:21;;;;;;;;;;;;;;;;;;5479620;25;19928;-65
2024/04/18 00:35:46;;;;;;;;;;;;;;;;;;5482070;25;20408;-65
2024/04/18 00:38:11;;;;;;;;;;;;;;;;;;5480674;25;19928;-66
2024/04/18 00:40:37;;;;;;;;;;;;;;;;;;5471715;25;19972;-66
2024/04/18 00:43:02;;;;;;;;;;;;;;;;;;5444491;26;19935;-66
2024/04/18 00:45:28;;;;;;;;;;;;;;;;;;5466684;26;20365;-66
2024/04/18 00:47:53;;;;;;;;;;;;;;;;;;5481107;25;19935;-65
2024/04/18 00:50:18;;;;;;;;;;;;;;;;;;5479834;25;20008;-65
2024/04/18 00:52:43;;;;;;;;;;;;;;;;;;5481306;25;20280;-65
2024/04/18 00:55:08;;;;;;;;;;;;;;;;;;5477921;25;19939;-65
2024/04/18 00:57:33;;;;;;;;;;;;;;;;;;5477427;25;19928;-65
2024/04/18 00:59:58;;;;;;;;;;;;;;;;;;5481384;25;19932;-65
2024/04/18 01:02:23;;;;;;;;;;;;;;;;;;5477572;25;19939;-65
2024/04/18 01:04:48;;;;;;;;;;;;;;;;;;5480488;25;20528;-65
2024/04/18 01:07:13;;;;;;;;;;;;;;;;;;5479736;25;20014;-65
2024/04/18 01:09:38;;;;;;;;;;;;;;;;;;5479082;26;19928;-65
2024/04/18 01:12:04;;;;;;;;;;;;;;;;;;5479649;25;19935;-65
2024/04/18 01:14:29;;;;;;;;;;;;;;;;;;5480874;25;20279;-65
2024/04/18 01:16:54;;;;;;;;;;;;;;;;;;5480433;25;19935;-64
2024/04/18 01:19:19;;;;;;;;;;;;;;;;;;5461663;25;20374;-65
2024/04/18 01:21:44;;;;;;;;;;;;;;;;;;5443987;26;19961;-66
2024/04/18 01:24:09;;;;;;;;;;;;;;;;;;5471914;26;20408;-65
2024/04/18 01:26:34;;;;;;;;;;;;;;;;;;5447776;26;19928;-65
2024/04/18 01:28:59;;;;;;;;;;;;;;;;;;5465202;25;19935;-65
2024/04/18 01:31:24;;;;;;;;;;;;;;;;;;5443603;26;19929;-65
2024/04/18 01:33:50;;;;;;;;;;;;;;;;;;5469701;26;19927;-65
2024/04/18 01:36:15;;;;;;;;;;;;;;;;;;5480652;25;19935;-65
2024/04/18 01:38:41;;;;;;;;;;;;;;;;;;5480502;26;19935;-66
2024/04/18 01:41:06;;;;;;;;;;;;;;;;;;5479820;25;19928;-65
2024/04/18 01:43:31;;;;;;;;;;;;;;;;;;5477851;26;19928;-65
2024/04/18 01:45:56;;;;;;;;;;;;;;;;;;5479696;25;19932;-65
2024/04/18 01:48:21;;;;;;;;;;;;;;;;;;5479390;25;20386;-66
2024/04/18 01:50:46;;;;;;;;;;;;;;;;;;5480640;25;19932;-65
2024/04/18 01:53:11;;;;;;;;;;;;;;;;;;5480408;25;19935;-65
2024/04/18 01:55:36;;;;;;;;;;;;;;;;;;5478653;26;19931;-65
2024/04/18 01:58:01;;;;;;;;;;;;;;;;;;5479234;25;20018;-65
2024/04/18 02:00:26;;;;;;;;;;;;;;;;;;5479383;25;20344;-66
2024/04/18 02:02:52;;;;;;;;;;;;;;;;;;5480065;25;19928;-65
2024/04/18 02:05:17;;;;;;;;;;;;;;;;;;5479829;25;19971;-65
2024/04/18 02:07:42;;;;;;;;;;;;;;;;;;5478884;25;19962;-65
2024/04/18 02:10:07;;;;;;;;;;;;;;;;;;5479963;25;20256;-66
2024/04/18 02:12:32;;;;;;;;;;;;;;;;;;5480079;25;19939;-65
2024/04/18 02:14:57;;;;;;;;;;;;;;;;;;5480537;25;19928;-65
2024/04/18 02:17:22;;;;;;;;;;;;;;;;;;5476337;26;20373;-65
2024/04/18 02:19:47;;;;;;;;;;;;;;;;;;5479984;26;20006;-65
2024/04/18 02:22:12;;;;;;;;;;;;;;;;;;5478192;26;20321;-65
2024/04/18 02:24:38;;;;;;;;;;;;;;;;;;5480560;26;19934;-66
2024/04/18 02:27:03;;;;;;;;;;;;;;;;;;5467747;26;19935;-65
2024/04/18 02:29:28;;;;;;;;;;;;;;;;;;5477547;26;20366;-65
2024/04/18 02:31:53;;;;;;;;;;;;;;;;;;5477645;26;19950;-65
2024/04/18 02:34:18;;;;;;;;;;;;;;;;;;5478746;25;19928;-65
2024/04/18 02:36:43;;;;;;;;;;;;;;;;;;5482173;26;19975;-65
2024/04/18 02:39:08;;;;;;;;;;;;;;;;;;5479749;26;20342;-65
2024/04/18 02:41:34;;;;;;;;;;;;;;;;;;5476917;25;19943;-65
2024/04/18 02:43:59;;;;;;;;;;;;;;;;;;5480307;25;19931;-65
2024/04/18 02:46:24;;;;;;;;;;;;;;;;;;5478117;25;20277;-66
2024/04/18 02:48:52;;;;;;;;;;;;;;;;;;5478934;26;19939;-65
2024/04/18 02:51:17;;;;;;;;;;;;;;;;;;5473550;25;19943;-65
2024/04/18 02:53:42;;;;;;;;;;;;;;;;;;5454103;25;19929;-65
2024/04/18 02:56:07;;;;;;;;;;;;;;;;;;5435876;26;19940;-66
2024/04/18 02:58:32;;;;;;;;;;;;;;;;;;5478998;26;19928;-65
2024/04/18 03:00:57;;;;;;;;;;;;;;;;;;5478629;25;20238;-65
2024/04/18 03:03:23;;;;;;;;;;;;;;;;;;5479909;25;19928;-65
2024/04/18 03:05:48;;;;;;;;;;;;;;;;;;5472376;25;19929;-65
2024/04/18 03:08:13;;;;;;;;;;;;;;;;;;5472016;26;20384;-65
2024/04/18 03:10:38;;;;;;;;;;;;;;;;;;5476913;25;20048;-65
2024/04/18 03:13:03;;;;;;;;;;;;;;;;;;5479418;25;19940;-66
2024/04/18 03:15:28;;;;;;;;;;;;;;;;;;5457535;25;19935;-65
2024/04/18 03:17:53;;;;;;;;;;;;;;;;;;5433296;26;19928;-66
2024/04/18 03:20:18;;;;;;;;;;;;;;;;;;5469825;25;19936;-65
2024/04/18 03:22:43;;;;;;;;;;;;;;;;;;5445167;26;19928;-65
2024/04/18 03:25:08;;;;;;;;;;;;;;;;;;5443460;26;19935;-65
2024/04/18 03:27:34;;;;;;;;;;;;;;;;;;5452312;25;20374;-65
2024/04/18 03:29:59;;;;;;;;;;;;;;;;;;5443598;25;19973;-65
2024/04/18 03:32:25;;;;;;;;;;;;;;;;;;5478192;25;19937;-65
2024/04/18 03:34:50;;;;;;;;;;;;;;;;;;5478918;25;19936;-66
2024/04/18 03:37:15;;;;;;;;;;;;;;;;;;5480850;26;19934;-65
2024/04/18 03:39:40;;;;;;;;;;;;;;;;;;5479884;26;19960;-66
2024/04/18 03:42:05;;;;;;;;;;;;;;;;;;5477003;25;20439;-66
2024/04/18 03:44:31;;;;;;;;;;;;;;;;;;5475995;25;19928;-66
2024/04/18 03:46:56;;;;;;;;;;;;;;;;;;5479014;25;19935;-66
2024/04/18 03:49:21;;;;;;;;;;;;;;;;;;5477309;26;19939;-66
2024/04/18 03:51:46;;;;;;;;;;;;;;;;;;5478202;25;19928;-66
2024/04/18 03:54:11;;;;;;;;;;;;;;;;;;5478343;25;19927;-65
2024/04/18 03:56:36;;;;;;;;;;;;;;;;;;5481449;25;19935;-66
2024/04/18 03:59:02;;;;;;;;;;;;;;;;;;5482536;26;20433;-65
2024/04/18 04:01:28;;;;;;;;;;;;;;;;;;5479988;25;20000;-66
2024/04/18 04:03:54;;;;;;;;;;;;;;;;;;5456237;25;20398;-65
2024/04/18 04:06:20;;;;;;;;;;;;;;;;;;5453127;26;19928;-65
2024/04/18 04:08:45;;;;;;;;;;;;;;;;;;5449802;26;19977;-65
2024/04/18 04:11:11;;;;;;;;;;;;;;;;;;5480398;26;19932;-65
2024/04/18 04:13:36;;;;;;;;;;;;;;;;;;5480448;25;20002;-65
2024/04/18 04:16:01;;;;;;;;;;;;;;;;;;5481513;25;19995;-68
2024/04/18 04:18:27;;;;;;;;;;;;;;;;;;5476390;25;19936;-66
2024/04/18 04:20:52;;;;;;;;;;;;;;;;;;5443751;26;19935;-65
2024/04/18 04:23:17;;;;;;;;;;;;;;;;;;5449141;26;19929;-65
2024/04/18 04:25:42;;;;;;;;;;;;;;;;;;5461434;26;20328;-66
2024/04/18 04:28:07;;;;;;;;;;;;;;;;;;5478754;25;19977;-66
2024/04/18 04:30:32;;;;;;;;;;;;;;;;;;5450977;26;20421;-65
2024/04/18 04:32:57;;;;;;;;;;;;;;;;;;5479161;25;20445;-66
2024/04/18 04:35:23;;;;;;;;;;;;;;;;;;5480806;25;19931;-66
2024/04/18 04:37:48;;;;;;;;;;;;;;;;;;5481163;26;19928;-65
2024/04/18 04:40:13;;;;;;;;;;;;;;;;;;5454859;25;19977;-65
2024/04/18 04:42:38;;;;;;;;;;;;;;;;;;5462965;26;19933;-66
2024/04/18 04:45:03;;;;;;;;;;;;;;;;;;5431339;26;19997;-66
2024/04/18 04:47:28;;;;;;;;;;;;;;;;;;5466636;26;19993;-65
2024/04/18 04:49:53;;;;;;;;;;;;;;;;;;5479690;26;19943;-66
2024/04/18 04:52:18;;;;;;;;;;;;;;;;;;5480870;25;20025;-66
2024/04/18 04:54:43;;;;;;;;;;;;;;;;;;5470881;25;19940;-66
2024/04/18 04:57:09;;;;;;;;;;;;;;;;;;5444494;26;19939;-66
2024/04/18 04:59:34;;;;;;;;;;;;;;;;;;5444187;25;20026;-66
2024/04/18 05:01:59;;;;;;;;;;;;;;;;;;5474540;26;19936;-65
2024/04/18 05:04:24;;;;;;;;;;;;;;;;;;5471745;25;19935;-66
2024/04/18 05:06:49;;;;;;;;;;;;;;;;;;5480494;25;19952;-66
2024/04/18 05:09:14;;;;;;;;;;;;;;;;;;5481605;25;19940;-66
2024/04/18 05:11:39;;;;;;;;;;;;;;;;;;5480426;25;20396;-65
2024/04/18 05:14:04;;;;;;;;;;;;;;;;;;5480159;25;19993;-66
2024/04/18 05:16:29;;;;;;;;;;;;;;;;;;5480529;25;19969;-65
2024/04/18 05:18:55;;;;;;;;;;;;;;;;;;5481220;26;20051;-65
2024/04/18 05:21:20;;;;;;;;;;;;;;;;;;5490979;25;20380;-65
2024/04/18 05:23:45;;;;;;;;;;;;;;;;;;5480574;25;19936;-66
2024/04/18 05:26:10;;;;;;;;;;;;;;;;;;5479661;25;19972;-66
2024/04/18 05:31:00;;;;;;;;;;;;;;;;;;5480264;25;19928;-66
2024/04/18 05:31:26;;;;;;;;;;;;;;;;;;5479719;25;19928;-66
2024/04/18 05:33:52;;;;;;;;;;;;;;;;;;5480549;25;19928;-66
2024/04/18 05:36:17;;;;;;;;;;;;;;;;;;5480553;25;19928;-65
2024/04/18 05:38:42;;;;;;;;;;;;;;;;;;5480528;25;19942;-66
2024/04/18 05:41:07;;;;;;;;;;;;;;;;;;5477408;25;20372;-66
2024/04/18 05:43:32;;;;;;;;;;;;;;;;;;5478292;26;20017;-66
2024/04/18 05:45:57;;;;;;;;;;;;;;;;;;5453111;25;19936;-66
2024/04/18 05:48:22;;;;;;;;;;;;;;;;;;5451037;25;20000;-66
2024/04/18 05:50:47;;;;;;;;;;;;;;;;;;5471406;26;19936;-65
2024/04/18 05:53:12;;;;;;;;;;;;;;;;;;5457947;26;20360;-66
2024/04/18 05:55:38;;;;;;;;;;;;;;;;;;5469640;26;19976;-66
2024/04/18 05:58:03;;;;;;;;;;;;;;;;;;5469034;26;19935;-66
2024/04/18 06:00:28;;;;;;;;;;;;;;;;;;5464867;25;19927;-65
2024/04/18 06:02:53;;;;;;;;;;;;;;;;;;5465825;26;19940;-66
2024/04/18 06:05:18;;;;;;;;;;;;;;;;;;5476192;25;19936;-66
2024/04/18 06:07:43;;;;;;;;;;;;;;;;;;5469261;25;19928;-66
2024/04/18 06:10:08;;;;;;;;;;;;;;;;;;5466734;25;20270;-66
2024/04/18 06:12:33;;;;;;;;;;;;;;;;;;5467852;26;19929;-66
2024/04/18 06:14:58;;;;;;;;;;;;;;;;;;5468338;26;19935;-66
2024/04/18 06:17:23;;;;;;;;;;;;;;;;;;5468792;26;19983;-66
2024/04/18 06:19:49;;;;;;;;;;;;;;;;;;5485276;26;19943;-66
2024/04/18 06:22:14;;;;;;;;;;;;;;;;;;5472029;25;19938;-66
2024/04/18 06:24:41;;;;;;;;;;;;;;;;;;5464378;26;19935;-66
2024/04/18 06:27:06;;;;;;;;;;;;;;;;;;5464562;26;20000;-66
2024/04/18 06:29:31;;;;;;;;;;;;;;;;;;5472778;25;19936;-66
2024/04/18 06:31:56;;;;;;;;;;;;;;;;;;5474629;26;19939;-66
2024/04/18 06:34:23;;;;;;;;;;;;;;;;;;5458213;25;19929;-67
2024/04/18 06:36:48;;;;;;;;;;;;;;;;;;5474301;26;20464;-67
2024/04/18 06:39:13;;;;;;;;;;;;;;;;;;5468190;25;19946;-67
2024/04/18 06:41:38;;;;;;;;;;;;;;;;;;5472298;26;20388;-67
2024/04/18 06:44:03;;;;;;;;;;;;;;;;;;5449676;25;19936;-67
2024/04/18 06:46:28;;;;;;;;;;;;;;;;;;5471976;26;20029;-67
2024/04/18 06:48:53;;;;;;;;;;;;;;;;;;5473294;26;19936;-67
2024/04/18 06:51:18;;;;;;;;;;;;;;;;;;5479946;25;19936;-67
2024/04/18 06:53:43;;;;;;;;;;;;;;;;;;5473858;25;19942;-67
2024/04/18 06:56:09;;;;;;;;;;;;;;;;;;5466664;25;19935;-67
2024/04/18 06:58:34;;;;;;;;;;;;;;;;;;5470778;25;19936;-67
2024/04/18 07:00:59;;;;;;;;;;;;;;;;;;5460741;25;19963;-67
2024/04/18 07:03:24;;;;;;;;;;;;;;;;;;5443131;26;20673;-67
2024/04/18 07:05:49;;;;;;;;;;;;;;;;;;5465185;26;20503;-67
2024/04/18 07:08:14;;;;;;;;;;;;;;;;;;5456550;25;20048;-67
2024/04/18 07:10:40;;;;;;;;;;;;;;;;;;5465161;25;20398;-67
2024/04/18 07:13:05;;;;;;;;;;;;;;;;;;5475472;25;20357;-67
2024/04/18 07:15:30;;;;;;;;;;;;;;;;;;5457876;26;19940;-67
2024/04/18 07:17:57;;;;;;;;;;;;;;;;;;5466946;25;19995;-67
2024/04/18 07:20:22;;;;;;;;;;;;;;;;;;5489828;25;19934;-67
2024/04/18 07:22:47;;;;;;;;;;;;;;;;;;5479568;25;19983;-67
2024/04/18 07:25:12;;;;;;;;;;;;;;;;;;5472113;25;20356;-67
2024/04/18 07:27:37;;;;;;;;;;;;;;;;;;5449762;26;20004;-67
2024/04/18 07:30:02;;;;;;;;;;;;;;;;;;5479434;26;20264;-67
2024/04/18 07:32:28;;;;;;;;;;;;;;;;;;5476238;25;19934;-67
2024/04/18 07:34:53;;;;;;;;;;;;;;;;;;5469823;25;20410;-67
2024/04/18 07:37:18;;;;;;;;;;;;;;;;;;5458234;25;19929;-67
2024/04/18 07:39:43;;;;;;;;;;;;;;;;;;5481282;26;19935;-67
2024/04/18 07:42:11;;;;;;;;;;;;;;;;;;5457364;26;19928;-67
2024/04/18 07:44:36;;;;;;;;;;;;;;;;;;5466334;26;19936;-67
2024/04/18 07:47:01;;;;;;;;;;;;;;;;;;5493190;26;20013;-67
2024/04/18 07:49:26;;;;;;;;;;;;;;;;;;5479532;26;19996;-67
2024/04/18 07:51:51;;;;;;;;;;;;;;;;;;5462563;26;20053;-66
2024/04/18 07:54:18;;;;;;;;;;;;;;;;;;5476057;26;19960;-67
2024/04/18 07:56:43;;;;;;;;;;;;;;;;;;5480217;25;19928;-66
2024/04/18 07:59:08;;;;;;;;;;;;;;;;;;5488105;25;19928;-67
2024/04/18 08:01:35;;;;;;;;;;;;;;;;;;5475181;25;19956;-66
2024/04/18 08:04:00;;;;;;;;;;;;;;;;;;5473422;26;19955;-66
2024/04/18 08:06:25;;;;;;;;;;;;;;;;;;5454451;25;19940;-67
2024/04/18 08:08:50;;;;;;;;;;;;;;;;;;5481119;25;19936;-67
2024/04/18 08:11:15;;;;;;;;;;;;;;;;;;5496395;25;19935;-66
2024/04/18 08:13:40;;;;;;;;;;;;;;;;;;5474699;25;20237;-67
2024/04/18 08:16:05;;;;;;;;;;;;;;;;;;5459992;25;19928;-67
2024/04/18 08:18:30;;;;;;;;;;;;;;;;;;5464817;26;20182;-67
2024/04/18 08:20:58;;;;;;;;;;;;;;;;;;5431332;26;19936;-67
2024/04/18 08:23:24;;;;;;;;;;;;;;;;;;5435149;26;19936;-67
2024/04/18 08:25:49;;;;;;;;;;;;;;;;;;5424331;26;19928;-67
2024/04/18 08:28:15;;;;;;;;;;;;;;;;;;5412652;26;20373;-66
2024/04/18 08:30:40;;;;;;;;;;;;;;;;;;5424768;26;19936;-66
2024/04/18 08:33:05;;;;;;;;;;;;;;;;;;5405537;26;19929;-66
2024/04/18 08:35:30;;;;;;;;;;;;;;;;;;5419099;26;19928;-64
2024/04/18 08:37:55;;;;;;;;;;;;;;;;;;5431048;26;19935;-64
2024/04/18 08:40:20;;;;;;;;;;;;;;;;;;5441304;26;19928;-64
2024/04/18 08:42:46;;;;;;;;;;;;;;;;;;5485568;25;19935;-64
2024/04/18 08:45:11;;;;;;;;;;;;;;;;;;5488566;25;19935;-66
2024/04/18 08:47:36;;;;;;;;;;;;;;;;;;5487880;26;19928;-64
2024/04/18 08:50:03;;;;;;;;;;;;;;;;;;5508443;25;19927;-64
2024/04/18 08:52:28;;;;;;;;;;;;;;;;;;5510826;25;20368;-64
2024/04/18 08:54:53;;;;;;;;;;;;;;;;;;5470102;26;20377;-64
2024/04/18 08:57:22;;;;;;;;;;;;;;;;;;5502984;26;19928;-64
2024/04/18 08:59:47;;;;;;;;;;;;;;;;;;5502378;25;19927;-64
2024/04/18 09:02:12;;;;;;;;;;;;;;;;;;5517444;25;20222;-65
2024/04/18 09:04:37;;;;;;;;;;;;;;;;;;5511715;25;19936;-64
2024/04/18 09:07:02;;;;;;;;;;;;;;;;;;5511743;25;20005;-64
2024/04/18 09:09:27;;;;;;;;;;;;;;;;;;5493334;25;19928;-64
2024/04/18 09:11:52;;;;;;;;;;;;;;;;;;5499143;25;20529;-64
2024/04/18 09:14:17;;;;;;;;;;;;;;;;;;5500878;25;19935;-64
2024/04/18 09:16:43;;;;;;;;;;;;;;;;;;5495756;25;19994;-64
2024/04/18 09:19:08;;;;;;;;;;;;;;;;;;5514663;25;19939;-64
2024/04/18 09:21:33;;;;;;;;;;;;;;;;;;5517567;25;20353;-64
2024/04/18 09:23:58;;;;;;;;;;;;;;;;;;5513423;25;19935;-64
2024/04/18 09:26:23;;;;;;;;;;;;;;;;;;5494676;25;19928;-64
2024/04/18 09:28:48;;;;;;;;;;;;;;;;;;5497221;25;20746;-64
2024/04/18 09:31:13;;;;;;;;;;;;;;;;;;5517703;25;19939;-64
2024/04/18 09:33:38;;;;;;;;;;;;;;;;;;5513219;25;19996;-64
2024/04/18 09:36:03;;;;;;;;;;;;;;;;;;5512253;25;20276;-65
2024/04/18 09:38:29;;;;;;;;;;;;;;;;;;5507548;25;19927;-64
2024/04/18 09:40:54;;;;;;;;;;;;;;;;;;5498299;25;19934;-64
2024/04/18 09:43:19;;;;;;;;;;;;;;;;;;5513370;25;19995;-64
2024/04/18 09:45:44;;;;;;;;;;;;;;;;;;5491456;25;20376;-64
2024/04/18 09:48:09;;;;;;;;;;;;;;;;;;5516748;25;20283;-64
2024/04/18 09:50:34;;;;;;;;;;;;;;;;;;5500544;26;19940;-64
2024/04/18 09:52:59;;;;;;;;;;;;;;;;;;5493865;26;20338;-64
2024/04/18 09:55:24;;;;;;;;;;;;;;;;;;5490583;25;20262;-64
2024/04/18 09:57:49;;;;;;;;;;;;;;;;;;5512096;25;19936;-65
2024/04/18 10:00:15;;;;;;;;;;;;;;;;;;5511591;25;19935;-66
2024/04/18 10:02:40;;;;;;;;;;;;;;;;;;5517679;25;19932;-66
2024/04/18 10:05:05;;;;;;;;;;;;;;;;;;5483991;26;19935;-66
2024/04/18 10:07:30;;;;;;;;;;;;;;;;;;5502452;25;19928;-66
2024/04/18 10:09:55;;;;;;;;;;;;;;;;;;5499703;25;20296;-65
2024/04/18 10:12:21;;;;;;;;;;;;;;;;;;5495115;25;19996;-66
2024/04/18 10:14:46;;;;;;;;;;;;;;;;;;5494675;26;19943;-65
2024/04/18 10:17:12;;;;;;;;;;;;;;;;;;5516813;25;19927;-65
2024/04/18 10:19:37;;;;;;;;;;;;;;;;;;5487218;26;19936;-65
2024/04/18 10:22:02;;;;;;;;;;;;;;;;;;5469515;25;19964;-65
2024/04/18 10:24:27;;;;;;;;;;;;;;;;;;5488143;25;20424;-65
2024/04/18 10:26:52;;;;;;;;;;;;;;;;;;5476209;25;19928;-66
2024/04/18 10:29:17;;;;;;;;;;;;;;;;;;5471790;25;19936;-65
2024/04/18 10:31:42;;;;;;;;;;;;;;;;;;5455487;25;20270;-66
2024/04/18 10:34:07;;;;;;;;;;;;;;;;;;5475618;25;20005;-65
2024/04/18 10:36:32;;;;;;;;;;;;;;;;;;5457115;26;19939;-66
2024/04/18 10:38:58;;;;;;;;;;;;;;;;;;5454039;26;20366;-66
2024/04/18 10:41:23;;;;;;;;;;;;;;;;;;5440717;26;20005;-66
2024/04/18 10:43:48;;;;;;;;;;;;;;;;;;5482982;26;19932;-66
2024/04/18 10:46:13;;;;;;;;;;;;;;;;;;5477809;26;20050;-66
2024/04/18 10:48:38;;;;;;;;;;;;;;;;;;5465815;26;20462;-66
2024/04/18 10:51:04;;;;;;;;;;;;;;;;;;5475187;25;19936;-66
2024/04/18 10:53:29;;;;;;;;;;;;;;;;;;5477623;25;20224;-66
2024/04/18 10:55:54;;;;;;;;;;;;;;;;;;5472530;25;19935;-66
2024/04/18 10:58:19;;;;;;;;;;;;;;;;;;5466706;26;21457;-66
2024/04/18 11:00:44;;;;;;;;;;;;;;;;;;5476029;25;19928;-66
2024/04/18 11:03:09;;;;;;;;;;;;;;;;;;5473541;26;20415;-66
2024/04/18 11:05:37;;;;;;;;;;;;;;;;;;5484873;25;19928;-66
2024/04/18 11:08:02;;;;;;;;;;;;;;;;;;5500454;25;20514;-66
2024/04/18 11:10:27;;;;;;;;;;;;;;;;;;5477528;26;20490;-66
2024/04/18 11:12:52;;;;;;;;;;;;;;;;;;5464425;25;19928;-65
2024/04/18 11:15:17;;;;;;;;;;;;;;;;;;5476595;25;19934;-65
2024/04/18 11:17:42;;;;;;;;;;;;;;;;;;5472194;25;19935;-65
2024/04/18 11:20:07;;;;;;;;;;;;;;;;;;5483735;25;19934;-66
2024/04/18 11:22:32;;;;;;;;;;;;;;;;;;5470906;25;20362;-66
2024/04/18 11:24:59;;;;;;;;;;;;;;;;;;5484642;25;19943;-66
2024/04/18 11:27:24;;;;;;;;;;;;;;;;;;5463689;26;19968;-66
2024/04/18 11:29:51;;;;;;;;;;;;;;;;;;5455512;25;19929;-66
2024/04/18 11:32:16;;;;;;;;;;;;;;;;;;5477048;25;19936;-65
2024/04/18 11:34:46;;;;;;;;;;;;;;;;;;5467837;25;19936;-65
2024/04/18 11:37:11;;;;;;;;;;;;;;;;;;5465108;26;19938;-65
2024/04/18 11:39:37;;;;;;;;;;;;;;;;;;5450200;26;20289;-65
2024/04/18 11:42:02;;;;;;;;;;;;;;;;;;5469100;25;20342;-65
2024/04/18 11:44:27;;;;;;;;;;;;;;;;;;5465188;25;20247;-65
2024/04/18 11:46:53;;;;;;;;;;;;;;;;;;5469761;25;19932;-65
2024/04/18 11:49:18;;;;;;;;;;;;;;;;;;5471824;25;19936;-65
2024/04/18 11:51:43;;;;;;;;;;;;;;;;;;5472534;25;19936;-65
2024/04/18 11:54:08;;;;;;;;;;;;;;;;;;5471209;25;19928;-65
2024/04/18 11:56:34;;;;;;;;;;;;;;;;;;5495725;25;19928;-65
2024/04/18 11:59:00;;;;;;;;;;;;;;;;;;5478196;25;19928;-65
2024/04/18 12:01:25;;;;;;;;;;;;;;;;;;5483160;25;19927;-65
2024/04/18 12:03:50;;;;;;;;;;;;;;;;;;5474228;25;20000;-65
2024/04/18 12:06:15;;;;;;;;;;;;;;;;;;5458320;26;20527;-66
2024/04/18 12:08:40;;;;;;;;;;;;;;;;;;5460236;26;19936;-66
2024/04/18 12:11:05;;;;;;;;;;;;;;;;;;5458534;26;19935;-65
2024/04/18 12:13:30;;;;;;;;;;;;;;;;;;5473318;26;19931;-65
2024/04/18 12:15:56;;;;;;;;;;;;;;;;;;5478102;26;20393;-65
2024/04/18 12:18:21;;;;;;;;;;;;;;;;;;5486676;25;19997;-65
2024/04/18 12:20:46;;;;;;;;;;;;;;;;;;5495057;25;19927;-65
2024/04/18 12:23:11;;;;;;;;;;;;;;;;;;5472749;25;19939;-65
2024/04/18 12:25:36;;;;;;;;;;;;;;;;;;5449431;26;20590;-65
2024/04/18 12:28:01;;;;;;;;;;;;;;;;;;5447766;26;19935;-66
2024/04/18 12:30:26;;;;;;;;;;;;;;;;;;5432708;26;19929;-65
2024/04/18 12:32:51;;;;;;;;;;;;;;;;;;5455408;26;21100;-65
2024/04/18 12:35:16;;;;;;;;;;;;;;;;;;5446723;26;19935;-65
2024/04/18 12:37:42;;;;;;;;;;;;;;;;;;5457977;25;19939;-64
2024/04/18 12:40:07;;;;;;;;;;;;;;;;;;5446017;26;20430;-65
2024/04/18 12:42:33;;;;;;;;;;;;;;;;;;5459083;26;20353;-64
2024/04/18 12:44:58;;;;;;;;;;;;;;;;;;5448432;26;20317;-65
2024/04/18 12:47:23;;;;;;;;;;;;;;;;;;5450242;26;20995;-65
2024/04/18 12:49:48;;;;;;;;;;;;;;;;;;5446586;26;20272;-65
2024/04/18 12:52:14;;;;;;;;;;;;;;;;;;5462090;25;19929;-65
2024/04/18 12:54:39;;;;;;;;;;;;;;;;;;5454650;25;19932;-65
2024/04/18 12:57:04;;;;;;;;;;;;;;;;;;5439488;25;19936;-65
2024/04/18 12:59:29;;;;;;;;;;;;;;;;;;5463626;26;19928;-65
2024/04/18 13:01:54;;;;;;;;;;;;;;;;;;5478027;25;19935;-65
2024/04/18 13:04:19;;;;;;;;;;;;;;;;;;5479340;25;19947;-65
2024/04/18 13:06:45;;;;;;;;;;;;;;;;;;5473259;25;19929;-64
2024/04/18 13:09:10;;;;;;;;;;;;;;;;;;5476801;25;20390;-65
2024/04/18 13:11:35;;;;;;;;;;;;;;;;;;5466170;25;19943;-64
2024/04/18 13:14:03;;;;;;;;;;;;;;;;;;5476177;25;19929;-64
2024/04/18 13:16:28;;;;;;;;;;;;;;;;;;5475897;25;19934;-65
2024/04/18 13:18:53;;;;;;;;;;;;;;;;;;5469929;25;19928;-65
2024/04/18 13:21:18;;;;;;;;;;;;;;;;;;5474380;25;19935;-65
2024/04/18 13:23:43;;;;;;;;;;;;;;;;;;5484203;25;19971;-65
2024/04/18 13:26:08;;;;;;;;;;;;;;;;;;5480398;25;20241;-65
2024/04/18 13:28:33;;;;;;;;;;;;;;;;;;5480003;26;20375;-64
2024/04/18 13:30:58;;;;;;;;;;;;;;;;;;5463015;26;19977;-65
2024/04/18 13:33:24;;;;;;;;;;;;;;;;;;5438220;26;19936;-65
2024/04/18 13:35:49;;;;;;;;;;;;;;;;;;5497305;25;19928;-65
2024/04/18 13:38:14;;;;;;;;;;;;;;;;;;5481716;25;20340;-65
2024/04/18 13:40:39;;;;;;;;;;;;;;;;;;5489156;25;20266;-65
2024/04/18 13:43:04;;;;;;;;;;;;;;;;;;5475245;25;20463;-65
2024/04/18 13:45:30;;;;;;;;;;;;;;;;;;5492023;26;19943;-65
2024/04/18 13:47:55;;;;;;;;;;;;;;;;;;5463831;25;19936;-65
2024/04/18 13:50:20;;;;;;;;;;;;;;;;;;5473112;25;19944;-65
2024/04/18 13:52:45;;;;;;;;;;;;;;;;;;5485213;25;19955;-65
2024/04/18 13:55:10;;;;;;;;;;;;;;;;;;5467472;25;19936;-65
2024/04/18 13:57:35;;;;;;;;;;;;;;;;;;5484363;25;19931;-65
2024/04/18 14:00:00;;;;;;;;;;;;;;;;;;5465845;25;19940;-65
2024/04/18 14:02:25;;;;;;;;;;;;;;;;;;5460577;25;20292;-65
2024/04/18 14:04:50;;;;;;;;;;;;;;;;;;5471979;25;19927;-65
2024/04/18 14:07:15;;;;;;;;;;;;;;;;;;5486745;25;19952;-65
2024/04/18 14:09:41;;;;;;;;;;;;;;;;;;5482161;26;19931;-65
2024/04/18 14:12:06;;;;;;;;;;;;;;;;;;5486610;25;20007;-64
2024/04/18 14:14:31;;;;;;;;;;;;;;;;;;5457255;25;19960;-64
2024/04/18 14:19:40;;;;;;;;;;;;;;;;;;5438867;26;19934;-64
2024/04/18 14:22:09;;;;;;;;;;;;;;;;;;5445019;25;19929;-64
2024/04/18 14:24:34;;;;;;;;;;;;;;;;;;5466206;26;19940;-65
2024/04/18 14:26:59;;;;;;;;;;;;;;;;;;5469162;26;20387;-64
2024/04/18 14:29:24;;;;;;;;;;;;;;;;;;5475211;26;20393;-65
2024/04/18 14:31:49;;;;;;;;;;;;;;;;;;5450920;26;19997;-64
2024/04/18 14:34:14;;;;;;;;;;;;;;;;;;5455439;26;19929;-64
2024/04/18 14:36:40;;;;;;;;;;;;;;;;;;5453910;26;19936;-64
2024/04/18 14:39:05;;;;;;;;;;;;;;;;;;5479189;26;20365;-64
2024/04/18 14:41:30;;;;;;;;;;;;;;;;;;5460297;26;20361;-64
2024/04/18 14:43:55;;;;;;;;;;;;;;;;;;5473567;26;20268;-64
2024/04/18 14:46:20;;;;;;;;;;;;;;;;;;5471989;25;19928;-64
2024/04/18 14:48:45;;;;;;;;;;;;;;;;;;5482914;26;19942;-66
2024/04/18 14:51:11;;;;;;;;;;;;;;;;;;5477795;26;19967;-66
2024/04/18 14:53:36;;;;;;;;;;;;;;;;;;5485997;25;20626;-66
2024/04/18 14:56:01;;;;;;;;;;;;;;;;;;5504064;25;19934;-65
2024/04/18 14:58:26;;;;;;;;;;;;;;;;;;5505359;25;19932;-64
2024/04/18 15:00:52;;;;;;;;;;;;;;;;;;5475903;26;19964;-64
2024/04/18 15:03:17;;;;;;;;;;;;;;;;;;5465314;25;19936;-64
2024/04/18 15:05:42;;;;;;;;;;;;;;;;;;5481002;26;19928;-64
2024/04/18 15:08:07;;;;;;;;;;;;;;;;;;5473552;26;19986;-64
2024/04/18 15:10:32;;;;;;;;;;;;;;;;;;5483343;25;21795;-64
2024/04/18 15:12:58;;;;;;;;;;;;;;;;;;5466785;25;20722;-64
2024/04/18 15:15:23;;;;;;;;;;;;;;;;;;5462733;25;19927;-64
2024/04/18 15:17:48;;;;;;;;;;;;;;;;;;5464942;26;19936;-64
2024/04/18 15:20:13;;;;;;;;;;;;;;;;;;5465916;25;19964;-64
2024/04/18 15:22:38;;;;;;;;;;;;;;;;;;5467433;25;19996;-64
2024/04/18 15:25:03;;;;;;;;;;;;;;;;;;5466145;25;20361;-64
2024/04/18 15:27:28;;;;;;;;;;;;;;;;;;5465513;25;19928;-64
2024/04/18 15:29:53;;;;;;;;;;;;;;;;;;5464720;25;19939;-64
2024/04/18 15:32:23;;;;;;;;;;;;;;;;;;5466325;25;20264;-64
2024/04/18 15:34:48;;;;;;;;;;;;;;;;;;5465397;26;20389;-64
2024/04/18 15:37:13;;;;;;;;;;;;;;;;;;5465022;26;20388;-64
2024/04/18 15:39:38;;;;;;;;;;;;;;;;;;5466555;26;20149;-63
2024/04/18 15:42:03;;;;;;;;;;;;;;;;;;5465185;26;19932;-64
2024/04/18 15:44:28;;;;;;;;;;;;;;;;;;5466644;25;20234;-64
2024/04/18 15:46:53;;;;;;;;;;;;;;;;;;5455307;26;19952;-64
2024/04/18 15:49:18;;;;;;;;;;;;;;;;;;5455996;26;19935;-64
2024/04/18 15:51:43;;;;;;;;;;;;;;;;;;5470792;25;19928;-64
2024/04/18 15:54:08;;;;;;;;;;;;;;;;;;5468902;25;19968;-64
2024/04/18 15:56:34;;;;;;;;;;;;;;;;;;5466540;25;20285;-65
2024/04/18 15:58:59;;;;;;;;;;;;;;;;;;5471445;25;19977;-63
2024/04/18 16:01:25;;;;;;;;;;;;;;;;;;5456804;25;20180;-64
2024/04/18 16:03:50;;;;;;;;;;;;;;;;;;5453011;25;19993;-64
2024/04/18 16:06:15;;;;;;;;;;;;;;;;;;5476627;25;19928;-63
2024/04/18 16:08:40;;;;;;;;;;;;;;;;;;5477115;25;19972;-64
2024/04/18 16:11:06;;;;;;;;;;;;;;;;;;5469290;25;19935;-63
2024/04/18 16:13:31;;;;;;;;;;;;;;;;;;5476165;25;19952;-64
2024/04/18 16:15:56;;;;;;;;;;;;;;;;;;5473271;25;19997;-63
2024/04/18 16:18:21;;;;;;;;;;;;;;;;;;5472240;25;19964;-64
2024/04/18 16:20:46;;;;;;;;;;;;;;;;;;5479181;25;20333;-64
2024/04/18 16:23:11;;;;;;;;;;;;;;;;;;5479236;26;19936;-64
2024/04/18 16:25:38;;;;;;;;;;;;;;;;;;5473341;25;19936;-64
2024/04/18 16:28:03;;;;;;;;;;;;;;;;;;5471064;25;19932;-64
2024/04/18 16:30:30;;;;;;;;;;;;;;;;;;5462269;26;19940;-65
2024/04/18 16:32:55;;;;;;;;;;;;;;;;;;5433672;26;20399;-65
2024/04/18 16:35:20;;;;;;;;;;;;;;;;;;5461999;26;20269;-64